Monday, November 19, 2018, 2:12 AM EST
Back to Local

KFWN, Sussex Airport

Location: Sussex, NJ, United States Lat: 41.2
Local Time: 2:12 AM EST ( 7:12 GMT) Lon: -74.633
Time Zone: US/Eastern Elev: 419 ft

Show me the last for .
Show Coded

Time T Td Feel RH Dir Speed Gust Alt SLP Vis Weather Sky Remarks
2018-11-19 01:53 35 30 - 81 - Calm - 30.14 30.15 10 OVC018 None
2018-11-19 00:53 35 30 - 81 - Calm - 30.16 30.16 10 BKN020 OVC031 6-hr Min Temp (1am): 34.0°F
6-hr Max Temp (1am): 36.0°F
2018-11-18 23:53 35 30 - 81 - Calm - 30.18 30.19 10 OVC029 24-hr Min Temp (12am): 32.0°F
24-hr Max Temp (12am): 39.0°F
2018-11-18 23:41 35 30 - 81 - Calm - 30.18 - 10 OVC029 None
2018-11-18 22:53 35 29 - 78 - Calm - 30.19 30.20 10 BKN031 OVC038 None
2018-11-18 21:53 35 29 - 78 - Calm - 30.21 30.22 10 OVC033 None
2018-11-18 20:53 36 29 - 75 - Calm - 30.23 30.24 10 FEW021 OVC035 None
2018-11-18 19:53 35 29 32 78 330° 3 - 30.24 30.25 10 OVC036 None
2018-11-18 18:53 36 28 - 72 - Calm - 30.25 30.26 10 OVC033 6-hr Min Temp (7pm): 35.1°F
6-hr Max Temp (7pm): 39.0°F
2018-11-18 17:53 36 28 - 72 - Calm - 30.26 30.27 10 OVC033 None
2018-11-18 16:53 37 27 - 66 - Calm - 30.27 30.28 10 OVC030 None
2018-11-18 15:53 38 26 - 61 - Calm - 30.28 30.29 10 OVC037 None
2018-11-18 14:53 38 26 - 61 - Calm - 30.28 30.29 10 OVC039 None
2018-11-18 13:53 38 26 - 61 - Calm - 30.29 30.29 10 OVC039 None
2018-11-18 12:53 38 24 - 56 - Calm - 30.30 30.31 10 OVC040 6-hr Min Temp (1pm): 32.0°F
6-hr Max Temp (1pm): 39.0°F
2018-11-18 11:53 38 24 - 56 - Calm - 30.33 30.34 10 OVC048 None
2018-11-18 10:53 38 24 - 56 - Calm - 30.36 30.37 10 SCT085 OVC120 None
2018-11-18 09:53 37 25 - 61 - Calm - 30.36 30.37 10 SCT100 OVC120 None
2018-11-18 08:53 36 28 - 72 - Calm - 30.37 30.38 10 BKN100 None
2018-11-18 07:53 33 29 - 84 - Calm - 30.37 30.37 10 BKN100 None
2018-11-18 06:53 32 28 - 85 - Calm - 30.35 30.36 10 OVC110 6-hr Min Temp (7am): 32.0°F
6-hr Max Temp (7am): 39.0°F
2018-11-18 05:53 33 27 - 77 - Calm - 30.34 30.35 10 BKN080 None
2018-11-18 04:53 35 26 - 69 - Calm - 30.32 30.32 10 BKN120 None
2018-11-18 03:53 37 26 - 64 - Calm - 30.31 30.32 10 OVC041 None
2018-11-18 02:53 38 24 36 56 Variable 3 - 30.31 30.32 10 OVC042 None

Support USWX by starting your Amazon purchase here.